sensor_id;sensor_type;location;lat;lon;timestamp;pressure;altitude;pressure_sealevel;temperature;humidity
16451;BME280;12243;42.708;23.310;2023-05-09T00:02:20;95312.59;;;13.46;100.00
16451;BME280;12243;42.708;23.310;2023-05-09T00:04:49;95307.34;;;13.46;100.00
16451;BME280;12243;42.708;23.310;2023-05-09T00:07:16;95308.75;;;13.50;100.00
16451;BME280;12243;42.708;23.310;2023-05-09T00:09:43;95312.88;;;13.52;100.00
16451;BME280;12243;42.708;23.310;2023-05-09T00:12:10;95304.34;;;13.60;100.00
16451;BME280;12243;42.708;23.310;2023-05-09T00:14:37;95306.81;;;13.62;99.57
16451;BME280;12243;42.708;23.310;2023-05-09T00:17:05;95297.72;;;13.56;99.86
16451;BME280;12243;42.708;23.310;2023-05-09T00:19:32;95309.97;;;13.65;99.50
16451;BME280;12243;42.708;23.310;2023-05-09T00:22:00;95306.53;;;13.74;99.20
16451;BME280;12243;42.708;23.310;2023-05-09T00:24:27;95302.53;;;13.70;99.39
16451;BME280;12243;42.708;23.310;2023-05-09T00:26:54;95304.47;;;13.58;100.00
16451;BME280;12243;42.708;23.310;2023-05-09T00:29:21;95296.34;;;13.52;100.00
16451;BME280;12243;42.708;23.310;2023-05-09T00:31:48;95295.09;;;13.56;100.00
16451;BME280;12243;42.708;23.310;2023-05-09T00:34:15;95294.69;;;13.51;100.00
16451;BME280;12243;42.708;23.310;2023-05-09T00:36:42;95291.81;;;13.54;100.00
16451;BME280;12243;42.708;23.310;2023-05-09T00:39:10;95292.78;;;13.53;100.00
16451;BME280;12243;42.708;23.310;2023-05-09T00:41:37;95293.06;;;13.50;100.00
16451;BME280;12243;42.708;23.310;2023-05-09T00:44:04;95284.78;;;13.45;100.00
16451;BME280;12243;42.708;23.310;2023-05-09T00:46:31;95296.06;;;13.45;100.00
16451;BME280;12243;42.708;23.310;2023-05-09T00:48:58;95285.88;;;13.52;100.00
16451;BME280;12243;42.708;23.310;2023-05-09T00:51:27;95287.56;;;13.53;100.00
16451;BME280;12243;42.708;23.310;2023-05-09T00:53:54;95284.94;;;13.53;100.00
16451;BME280;12243;42.708;23.310;2023-05-09T00:56:22;95285.88;;;13.52;100.00
16451;BME280;12243;42.708;23.310;2023-05-09T00:58:49;95284.22;;;13.51;100.00
16451;BME280;12243;42.708;23.310;2023-05-09T01:01:16;95284.22;;;13.51;99.74
16451;BME280;12243;42.708;23.310;2023-05-09T01:03:45;95285.59;;;13.55;98.83
16451;BME280;12243;42.708;23.310;2023-05-09T01:06:17;95282.97;;;13.55;99.72
16451;BME280;12243;42.708;23.310;2023-05-09T01:08:53;95284.94;;;13.53;98.95
16451;BME280;12243;42.708;23.310;2023-05-09T01:11:28;95275.69;;;13.49;99.77
16451;BME280;12243;42.708;23.310;2023-05-09T01:14:04;95282.84;;;13.56;99.35
16451;BME280;12243;42.708;23.310;2023-05-09T01:16:38;95279.00;;;13.51;98.79
16451;BME280;12243;42.708;23.310;2023-05-09T01:19:19;95287.25;;;13.56;98.31
16451;BME280;12243;42.708;23.310;2023-05-09T01:21:54;95285.88;;;13.52;97.90
16451;BME280;12243;42.708;23.310;2023-05-09T01:24:38;95283.41;;;13.60;97.53
16451;BME280;12243;42.708;23.310;2023-05-09T01:27:26;95287.28;;;13.46;98.03
16451;BME280;12243;42.708;23.310;2023-05-09T01:29:56;95290.56;;;13.39;98.69
16451;BME280;12243;42.708;23.310;2023-05-09T01:32:27;95294.16;;;13.38;99.57
16451;BME280;12243;42.708;23.310;2023-05-09T01:34:59;95289.47;;;13.51;98.45
16451;BME280;12243;42.708;23.310;2023-05-09T01:37:30;95291.09;;;13.52;97.65
16451;BME280;12243;42.708;23.310;2023-05-09T01:40:02;95290.84;;;13.55;97.94
16451;BME280;12243;42.708;23.310;2023-05-09T01:42:38;95287.94;;;13.58;97.63
16451;BME280;12243;42.708;23.310;2023-05-09T01:45:10;95289.47;;;13.61;97.13
16451;BME280;12243;42.708;23.310;2023-05-09T01:47:39;95288.91;;;13.57;97.34
16451;BME280;12243;42.708;23.310;2023-05-09T01:50:09;95296.06;;;13.55;97.01
16451;BME280;12243;42.708;23.310;2023-05-09T01:52:37;95295.53;;;13.51;96.99
16451;BME280;12243;42.708;23.310;2023-05-09T01:55:06;95298.25;;;13.59;97.04
16451;BME280;12243;42.708;23.310;2023-05-09T01:57:35;95302.66;;;13.69;96.39
16451;BME280;12243;42.708;23.310;2023-05-09T02:00:04;95304.03;;;13.63;96.07
16451;BME280;12243;42.708;23.310;2023-05-09T02:02:40;95299.22;;;13.58;96.92
16451;BME280;12243;42.708;23.310;2023-05-09T02:05:09;95302.41;;;13.62;96.75
16451;BME280;12243;42.708;23.310;2023-05-09T02:07:38;95303.47;;;13.69;96.67
16451;BME280;12243;42.708;23.310;2023-05-09T02:10:08;95305.72;;;13.64;95.99
16451;BME280;12243;42.708;23.310;2023-05-09T02:12:36;95301.03;;;13.58;95.99
16451;BME280;12243;42.708;23.310;2023-05-09T02:15:04;95297.72;;;13.56;96.16
16451;BME280;12243;42.708;23.310;2023-05-09T02:17:31;95304.88;;;13.54;95.60
16451;BME280;12243;42.708;23.310;2023-05-09T02:19:59;95300.47;;;13.45;96.44
16451;BME280;12243;42.708;23.310;2023-05-09T02:22:26;95303.66;;;13.48;96.66
16451;BME280;12243;42.708;23.310;2023-05-09T02:24:53;95287.94;;;13.48;96.07
16451;BME280;12243;42.708;23.310;2023-05-09T02:27:21;95295.56;;;13.32;96.74
16451;BME280;12243;42.708;23.310;2023-05-09T02:29:50;95294.16;;;13.38;97.05
16451;BME280;12243;42.708;23.310;2023-05-09T02:32:22;95304.22;;;13.32;97.38
16451;BME280;12243;42.708;23.310;2023-05-09T02:34:52;95301.03;;;13.39;96.74
16451;BME280;12243;42.708;23.310;2023-05-09T02:37:22;95302.97;;;13.37;96.93
16451;BME280;12243;42.708;23.310;2023-05-09T02:39:49;95306.97;;;13.41;96.87
16451;BME280;12243;42.708;23.310;2023-05-09T02:42:19;95309.03;;;13.37;96.69
16451;BME280;12243;42.708;23.310;2023-05-09T02:44:47;95297.03;;;13.34;97.12
16451;BME280;12243;42.708;23.310;2023-05-09T02:47:14;95298.41;;;13.39;97.24
16451;BME280;12243;42.708;23.310;2023-05-09T02:49:41;95303.38;;;13.42;96.44
16451;BME280;12243;42.708;23.310;2023-05-09T02:52:10;95303.50;;;13.30;96.52
16451;BME280;12243;42.708;23.310;2023-05-09T02:54:38;95298.41;;;13.19;98.12
16451;BME280;12243;42.708;23.310;2023-05-09T02:57:06;95301.00;;;13.19;98.33
16451;BME280;12243;42.708;23.310;2023-05-09T02:59:33;95292.19;;;13.20;97.71
16451;BME280;12243;42.708;23.310;2023-05-09T03:02:01;95297.16;;;13.23;98.07
16451;BME280;12243;42.708;23.310;2023-05-09T03:04:29;95301.69;;;13.21;97.77
16451;BME280;12243;42.708;23.310;2023-05-09T03:06:56;95303.50;;;13.11;98.24
16451;BME280;12243;42.708;23.310;2023-05-09T03:09:27;95309.94;;;13.07;99.21
16451;BME280;12243;42.708;23.310;2023-05-09T03:11:55;95314.22;;;13.08;99.63
16451;BME280;12243;42.708;23.310;2023-05-09T03:14:23;95320.25;;;12.99;100.00
16451;BME280;12243;42.708;23.310;2023-05-09T03:16:51;95315.81;;;12.90;100.00
16451;BME280;12243;42.708;23.310;2023-05-09T03:19:27;95326.69;;;12.85;100.00
16451;BME280;12243;42.708;23.310;2023-05-09T03:21:54;95323.41;;;12.93;100.00
16451;BME280;12243;42.708;23.310;2023-05-09T03:24:21;95331.50;;;12.90;100.00
16451;BME280;12243;42.708;23.310;2023-05-09T03:26:48;95340.84;;;12.82;100.00
16451;BME280;12243;42.708;23.310;2023-05-09T03:29:16;95341.66;;;12.73;100.00
16451;BME280;12243;42.708;23.310;2023-05-09T03:31:43;95342.78;;;12.80;100.00
16451;BME280;12243;42.708;23.310;2023-05-09T03:34:10;95342.22;;;12.77;100.00
16451;BME280;12243;42.708;23.310;2023-05-09T03:36:41;95347.97;;;12.71;100.00
16451;BME280;12243;42.708;23.310;2023-05-09T03:39:10;95347.16;;;12.70;100.00
16451;BME280;12243;42.708;23.310;2023-05-09T03:41:40;95352.09;;;12.63;100.00
16451;BME280;12243;42.708;23.310;2023-05-09T03:44:08;95352.34;;;12.60;100.00
16451;BME280;12243;42.708;23.310;2023-05-09T03:46:36;95353.97;;;12.52;100.00
16451;BME280;12243;42.708;23.310;2023-05-09T03:49:04;95346.41;;;12.49;100.00
16451;BME280;12243;42.708;23.310;2023-05-09T03:51:31;95340.47;;;12.47;100.00
16451;BME280;12243;42.708;23.310;2023-05-09T03:54:00;95349.16;;;12.57;100.00
16451;BME280;12243;42.708;23.310;2023-05-09T03:56:28;95349.16;;;12.57;100.00
16451;BME280;12243;42.708;23.310;2023-05-09T03:58:55;95344.34;;;12.62;100.00
16451;BME280;12243;42.708;23.310;2023-05-09T04:01:24;95344.66;;;12.69;100.00
16451;BME280;12243;42.708;23.310;2023-05-09T04:03:54;95346.34;;;12.79;100.00
16451;BME280;12243;42.708;23.310;2023-05-09T04:06:23;95343.34;;;12.84;100.00
16451;BME280;12243;42.708;23.310;2023-05-09T04:08:50;95350.25;;;12.95;100.00
16451;BME280;12243;42.708;23.310;2023-05-09T04:11:17;95347.25;;;13.09;100.00
16451;BME280;12243;42.708;23.310;2023-05-09T04:13:46;95351.94;;;13.15;100.00
16451;BME280;12243;42.708;23.310;2023-05-09T04:16:31;95356.38;;;13.24;100.00
16451;BME280;12243;42.708;23.310;2023-05-09T04:19:00;95359.97;;;13.33;100.00
16451;BME280;12243;42.708;23.310;2023-05-09T04:21:27;95367.94;;;13.41;100.00
16451;BME280;12243;42.708;23.310;2023-05-09T04:23:58;95367.13;;;13.41;100.00
16451;BME280;12243;42.708;23.310;2023-05-09T04:26:32;95365.88;;;13.35;100.00
16451;BME280;12243;42.708;23.310;2023-05-09T04:29:03;95360.78;;;13.33;100.00
16451;BME280;12243;42.708;23.310;2023-05-09T04:31:30;95368.09;;;13.40;100.00
16451;BME280;12243;42.708;23.310;2023-05-09T04:33:57;95368.25;;;13.67;100.00
16451;BME280;12243;42.708;23.310;2023-05-09T04:36:26;95361.19;;;13.97;100.00
16451;BME280;12243;42.708;23.310;2023-05-09T04:38:56;95368.19;;;14.06;100.00
16451;BME280;12243;42.708;23.310;2023-05-09T04:41:25;95366.69;;;13.94;100.00
16451;BME280;12243;42.708;23.310;2023-05-09T04:43:52;95374.59;;;13.74;100.00
16451;BME280;12243;42.708;23.310;2023-05-09T04:46:20;95363.41;;;13.72;100.00
16451;BME280;12243;42.708;23.310;2023-05-09T04:48:47;95369.06;;;13.77;100.00
16451;BME280;12243;42.708;23.310;2023-05-09T04:51:14;95375.41;;;13.85;100.00
16451;BME280;12243;42.708;23.310;2023-05-09T04:53:45;95379.50;;;13.87;99.63
16451;BME280;12243;42.708;23.310;2023-05-09T04:56:12;95372.09;;;13.82;99.75
16451;BME280;12243;42.708;23.310;2023-05-09T04:58:42;95375.09;;;13.88;99.49
16451;BME280;12243;42.708;23.310;2023-05-09T05:01:10;95374.28;;;13.87;98.68
16451;BME280;12243;42.708;23.310;2023-05-09T05:03:38;95373.22;;;13.70;99.62
16451;BME280;12243;42.708;23.310;2023-05-09T05:06:05;95369.91;;;13.78;99.55
16451;BME280;12243;42.708;23.310;2023-05-09T05:08:34;95360.53;;;13.85;98.91
16451;BME280;12243;42.708;23.310;2023-05-09T05:11:02;95373.06;;;13.91;98.34
16451;BME280;12243;42.708;23.310;2023-05-09T05:13:29;95363.25;;;13.83;98.38
16451;BME280;12243;42.708;23.310;2023-05-09T05:16:00;95363.13;;;13.85;98.96
16451;BME280;12243;42.708;23.310;2023-05-09T05:18:26;95356.63;;;14.09;97.80
16451;BME280;12243;42.708;23.310;2023-05-09T05:20:53;95362.41;;;14.12;97.21
16451;BME280;12243;42.708;23.310;2023-05-09T05:23:21;95364.72;;;14.15;96.42
16451;BME280;12243;42.708;23.310;2023-05-09T05:25:51;95364.16;;;14.21;96.19
16451;BME280;12243;42.708;23.310;2023-05-09T05:28:20;95369.66;;;14.38;95.43
16451;BME280;12243;42.708;23.310;2023-05-09T05:30:48;95370.72;;;14.45;95.13
16451;BME280;12243;42.708;23.310;2023-05-09T05:33:14;95370.28;;;14.59;94.66
16451;BME280;12243;42.708;23.310;2023-05-09T05:35:42;95374.59;;;14.78;92.96
16451;BME280;12243;42.708;23.310;2023-05-09T05:38:09;95371.81;;;14.89;91.27
16451;BME280;12243;42.708;23.310;2023-05-09T05:40:37;95372.31;;;14.75;90.19
16451;BME280;12243;42.708;23.310;2023-05-09T05:43:05;95373.25;;;14.74;90.63
16451;BME280;12243;42.708;23.310;2023-05-09T05:45:35;95379.81;;;14.88;90.69
16451;BME280;12243;42.708;23.310;2023-05-09T05:48:05;95381.56;;;14.97;89.78
16451;BME280;12243;42.708;23.310;2023-05-09T05:50:32;95375.75;;;15.03;89.96
16451;BME280;12243;42.708;23.310;2023-05-09T05:52:59;95375.00;;;15.11;88.99
16451;BME280;12243;42.708;23.310;2023-05-09T05:55:26;95379.34;;;15.20;88.22
16451;BME280;12243;42.708;23.310;2023-05-09T05:57:53;95377.88;;;15.17;89.32
16451;BME280;12243;42.708;23.310;2023-05-09T06:00:20;95384.72;;;15.28;88.57
16451;BME280;12243;42.708;23.310;2023-05-09T06:02:58;95377.22;;;15.51;86.80
16451;BME280;12243;42.708;23.310;2023-05-09T06:05:37;95372.75;;;15.97;84.76
16451;BME280;12243;42.708;23.310;2023-05-09T06:08:05;95379.69;;;16.06;82.73
16451;BME280;12243;42.708;23.310;2023-05-09T06:10:31;95367.41;;;15.89;82.43
16451;BME280;12243;42.708;23.310;2023-05-09T06:12:58;95377.41;;;16.29;80.68
16451;BME280;12243;42.708;23.310;2023-05-09T06:15:25;95372.78;;;17.26;76.33
16451;BME280;12243;42.708;23.310;2023-05-09T06:17:53;95370.13;;;18.17;71.39
16451;BME280;12243;42.708;23.310;2023-05-09T06:20:22;95370.94;;;18.01;72.06
16451;BME280;12243;42.708;23.310;2023-05-09T06:22:49;95370.78;;;18.27;72.04
16451;BME280;12243;42.708;23.310;2023-05-09T06:25:17;95370.84;;;18.83;69.76
16451;BME280;12243;42.708;23.310;2023-05-09T06:27:44;95370.03;;;19.22;67.21
16451;BME280;12243;42.708;23.310;2023-05-09T06:30:12;95378.06;;;19.60;66.49
16451;BME280;12243;42.708;23.310;2023-05-09T06:32:39;95372.34;;;19.79;65.58
16451;BME280;12243;42.708;23.310;2023-05-09T06:35:06;95366.69;;;19.82;64.04
16451;BME280;12243;42.708;23.310;2023-05-09T06:37:35;95373.75;;;19.90;63.92
16451;BME280;12243;42.708;23.310;2023-05-09T06:40:02;95370.41;;;20.34;62.48
16451;BME280;12243;42.708;23.310;2023-05-09T06:42:29;95369.97;;;20.07;63.02
16451;BME280;12243;42.708;23.310;2023-05-09T06:44:58;95369.09;;;19.69;65.31
16451;BME280;12243;42.708;23.310;2023-05-09T06:47:25;95365.75;;;19.75;64.28
16451;BME280;12243;42.708;23.310;2023-05-09T06:49:51;95365.81;;;19.67;65.05
16451;BME280;12243;42.708;23.310;2023-05-09T06:52:18;95365.56;;;19.45;64.94
16451;BME280;12243;42.708;23.310;2023-05-09T06:54:47;95360.66;;;19.42;65.67
16451;BME280;12243;42.708;23.310;2023-05-09T06:57:14;95367.19;;;19.55;64.78
16451;BME280;12243;42.708;23.310;2023-05-09T06:59:41;95360.38;;;19.91;63.80
16451;BME280;12243;42.708;23.310;2023-05-09T07:02:09;95363.84;;;19.61;63.95
16451;BME280;12243;42.708;23.310;2023-05-09T07:04:36;95357.53;;;19.08;66.44
16451;BME280;12243;42.708;23.310;2023-05-09T07:07:03;95353.38;;;18.66;67.50
16451;BME280;12243;42.708;23.310;2023-05-09T07:09:30;95355.72;;;18.44;68.28
16451;BME280;12243;42.708;23.310;2023-05-09T07:11:59;95357.38;;;18.45;68.73
16451;BME280;12243;42.708;23.310;2023-05-09T07:14:26;95354.63;;;18.14;69.45
16451;BME280;12243;42.708;23.310;2023-05-09T07:16:53;95352.16;;;17.88;70.22
16451;BME280;12243;42.708;23.310;2023-05-09T07:19:20;95366.28;;;17.62;71.32
16451;BME280;12243;42.708;23.310;2023-05-09T07:21:47;95358.69;;;17.51;79.71
16451;BME280;12243;42.708;23.310;2023-05-09T07:24:14;95367.00;;;17.14;73.83
16451;BME280;12243;42.708;23.310;2023-05-09T07:26:41;95358.50;;;16.86;75.36
16451;BME280;12243;42.708;23.310;2023-05-09T07:29:09;95366.66;;;17.09;74.54
16451;BME280;12243;42.708;23.310;2023-05-09T07:31:36;95362.34;;;17.75;72.59
16451;BME280;12243;42.708;23.310;2023-05-09T07:34:02;95359.75;;;17.99;71.06
16451;BME280;12243;42.708;23.310;2023-05-09T07:36:29;95368.63;;;17.90;71.16
16451;BME280;12243;42.708;23.310;2023-05-09T07:38:57;95363.38;;;17.90;70.95
16451;BME280;12243;42.708;23.310;2023-05-09T07:41:24;95360.19;;;17.62;71.68
16451;BME280;12243;42.708;23.310;2023-05-09T07:43:51;95372.50;;;17.53;72.44
16451;BME280;12243;42.708;23.310;2023-05-09T07:46:19;95373.19;;;17.47;72.57
16451;BME280;12243;42.708;23.310;2023-05-09T07:48:46;95369.56;;;17.56;71.94
16451;BME280;12243;42.708;23.310;2023-05-09T07:51:13;95369.25;;;17.68;71.07
16451;BME280;12243;42.708;23.310;2023-05-09T07:53:40;95374.19;;;17.54;71.24
16451;BME280;12243;42.708;23.310;2023-05-09T07:56:07;95378.03;;;17.26;71.45
16451;BME280;12243;42.708;23.310;2023-05-09T07:58:33;95365.84;;;17.17;72.63
16451;BME280;12243;42.708;23.310;2023-05-09T08:01:00;95362.50;;;16.98;72.72
16451;BME280;12243;42.708;23.310;2023-05-09T08:03:28;95369.97;;;16.77;72.65
16451;BME280;12243;42.708;23.310;2023-05-09T08:05:55;95360.00;;;16.62;74.42
16451;BME280;12243;42.708;23.310;2023-05-09T08:08:22;95359.28;;;16.52;74.68
16451;BME280;12243;42.708;23.310;2023-05-09T08:10:49;95371.38;;;16.37;75.56
16451;BME280;12243;42.708;23.310;2023-05-09T08:13:16;95365.69;;;16.24;76.77
16451;BME280;12243;42.708;23.310;2023-05-09T08:15:43;95376.16;;;16.15;77.39
16451;BME280;12243;42.708;23.310;2023-05-09T08:18:10;95365.34;;;16.18;77.81
16451;BME280;12243;42.708;23.310;2023-05-09T08:20:38;95365.34;;;16.44;76.83
16451;BME280;12243;42.708;23.310;2023-05-09T08:23:05;95369.50;;;16.55;76.29
16451;BME280;12243;42.708;23.310;2023-05-09T08:25:32;95373.66;;;16.66;76.37
16451;BME280;12243;42.708;23.310;2023-05-09T08:27:59;95374.19;;;16.96;75.22
16451;BME280;12243;42.708;23.310;2023-05-09T08:30:26;95368.69;;;17.23;73.20
16451;BME280;12243;42.708;23.310;2023-05-09T08:32:54;95364.59;;;17.45;72.35
16451;BME280;12243;42.708;23.310;2023-05-09T08:35:20;95373.25;;;17.88;71.32
16451;BME280;12243;42.708;23.310;2023-05-09T08:37:49;95371.75;;;17.77;71.05
16451;BME280;12243;42.708;23.310;2023-05-09T08:40:16;95365.56;;;17.28;72.71
16451;BME280;12243;42.708;23.310;2023-05-09T08:42:43;95376.34;;;17.08;73.21
16451;BME280;12243;42.708;23.310;2023-05-09T08:45:12;95365.38;;;16.79;73.44
16451;BME280;12243;42.708;23.310;2023-05-09T08:47:40;95373.09;;;16.46;74.21
16451;BME280;12243;42.708;23.310;2023-05-09T08:50:08;95361.84;;;16.36;73.73
16451;BME280;12243;42.708;23.310;2023-05-09T08:52:36;95373.50;;;16.33;73.97
16451;BME280;12243;42.708;23.310;2023-05-09T08:55:05;95359.88;;;16.38;73.57
16451;BME280;12243;42.708;23.310;2023-05-09T08:57:32;95366.88;;;16.55;71.80
16451;BME280;12243;42.708;23.310;2023-05-09T09:00:00;95366.28;;;16.70;70.68
16451;BME280;12243;42.708;23.310;2023-05-09T09:02:28;95373.28;;;16.79;70.98
16451;BME280;12243;42.708;23.310;2023-05-09T09:04:55;95359.63;;;17.26;69.29
16451;BME280;12243;42.708;23.310;2023-05-09T09:07:22;95368.38;;;17.34;68.99
16451;BME280;12243;42.708;23.310;2023-05-09T09:09:51;95362.66;;;17.63;68.16
16451;BME280;12243;42.708;23.310;2023-05-09T09:12:21;95365.31;;;17.72;67.02
16451;BME280;12243;42.708;23.310;2023-05-09T09:14:52;95363.94;;;17.43;66.28
16451;BME280;12243;42.708;23.310;2023-05-09T09:17:21;95367.56;;;17.34;66.82
16451;BME280;12243;42.708;23.310;2023-05-09T09:19:54;95364.22;;;17.16;67.72
16451;BME280;12243;42.708;23.310;2023-05-09T09:22:22;95361.47;;;17.33;67.27
16451;BME280;12243;42.708;23.310;2023-05-09T09:24:49;95361.28;;;17.27;67.39
16451;BME280;12243;42.708;23.310;2023-05-09T09:27:16;95366.00;;;17.15;67.90
16451;BME280;12243;42.708;23.310;2023-05-09T09:29:45;95360.47;;;17.26;67.98
16451;BME280;12243;42.708;23.310;2023-05-09T09:32:12;95343.00;;;17.25;67.64
16451;BME280;12243;42.708;23.310;2023-05-09T09:34:38;95355.63;;;16.71;68.73
16451;BME280;12243;42.708;23.310;2023-05-09T09:37:05;95355.03;;;16.51;69.88
16451;BME280;12243;42.708;23.310;2023-05-09T09:39:33;95363.53;;;16.45;70.28
16451;BME280;12243;42.708;23.310;2023-05-09T09:42:09;95362.34;;;16.13;71.83
16451;BME280;12243;42.708;23.310;2023-05-09T09:44:36;95349.78;;;15.81;71.82
16451;BME280;12243;42.708;23.310;2023-05-09T09:47:08;95356.25;;;15.87;71.79
16451;BME280;12243;42.708;23.310;2023-05-09T09:49:35;95349.75;;;15.99;72.13
16451;BME280;12243;42.708;23.310;2023-05-09T09:52:02;95352.34;;;16.17;73.36
16451;BME280;12243;42.708;23.310;2023-05-09T09:54:30;95347.72;;;16.37;72.36
16451;BME280;12243;42.708;23.310;2023-05-09T09:56:57;95347.56;;;16.73;72.47
16451;BME280;12243;42.708;23.310;2023-05-09T09:59:25;95354.38;;;16.83;72.73
16451;BME280;12243;42.708;23.310;2023-05-09T10:01:54;95359.84;;;16.90;72.28
16451;BME280;12243;42.708;23.310;2023-05-09T10:04:24;95352.63;;;16.92;72.52
16451;BME280;12243;42.708;23.310;2023-05-09T10:06:52;95345.44;;;17.10;72.41
16451;BME280;12243;42.708;23.310;2023-05-09T10:09:20;95349.66;;;17.62;71.20
16451;BME280;12243;42.708;23.310;2023-05-09T10:11:49;95345.41;;;18.02;68.06
16451;BME280;12243;42.708;23.310;2023-05-09T10:14:17;95345.22;;;18.12;67.84
16451;BME280;12243;42.708;23.310;2023-05-09T10:16:47;95332.72;;;18.14;67.38
16451;BME280;12243;42.708;23.310;2023-05-09T10:19:17;95334.84;;;18.02;67.57
16451;BME280;12243;42.708;23.310;2023-05-09T10:21:50;95339.47;;;17.75;68.34
16451;BME280;12243;42.708;23.310;2023-05-09T10:24:21;95341.91;;;17.60;68.44
16451;BME280;12243;42.708;23.310;2023-05-09T10:26:58;95333.03;;;17.61;69.04
16451;BME280;12243;42.708;23.310;2023-05-09T10:29:28;95335.66;;;17.61;68.64
16451;BME280;12243;42.708;23.310;2023-05-09T10:31:58;95332.53;;;17.58;69.08
16451;BME280;12243;42.708;23.310;2023-05-09T10:34:30;95339.16;;;17.78;68.73
16451;BME280;12243;42.708;23.310;2023-05-09T10:37:01;95334.06;;;17.93;68.44
16451;BME280;12243;42.708;23.310;2023-05-09T10:39:28;95329.78;;;18.00;68.22
16451;BME280;12243;42.708;23.310;2023-05-09T10:41:57;95329.41;;;18.28;68.00
16451;BME280;12243;42.708;23.310;2023-05-09T10:44:25;95328.09;;;18.16;67.34
16451;BME280;12243;42.708;23.310;2023-05-09T10:46:54;95331.03;;;18.29;68.17
16451;BME280;12243;42.708;23.310;2023-05-09T10:49:21;95326.28;;;18.24;67.39
16451;BME280;12243;42.708;23.310;2023-05-09T10:51:48;95341.59;;;18.21;67.40
16451;BME280;12243;42.708;23.310;2023-05-09T10:54:25;95339.31;;;17.85;68.04
16451;BME280;12243;42.708;23.310;2023-05-09T10:56:53;95338.97;;;17.72;68.94
16451;BME280;12243;42.708;23.310;2023-05-09T10:59:36;95327.56;;;17.38;71.12
16451;BME280;12243;42.708;23.310;2023-05-09T11:02:06;95338.03;;;17.06;71.45
16451;BME280;12243;42.708;23.310;2023-05-09T11:04:38;95338.84;;;17.06;71.44
16451;BME280;12243;42.708;23.310;2023-05-09T11:07:21;95348.69;;;16.96;72.33
16451;BME280;12243;42.708;23.310;2023-05-09T11:09:52;95348.38;;;17.07;72.77
16451;BME280;12243;42.708;23.310;2023-05-09T11:12:19;95344.31;;;17.21;70.29
16451;BME280;12243;42.708;23.310;2023-05-09T11:14:48;95339.59;;;17.33;70.48
16451;BME280;12243;42.708;23.310;2023-05-09T11:17:27;95341.91;;;17.52;71.13
16451;BME280;12243;42.708;23.310;2023-05-09T11:19:59;95337.47;;;17.61;70.23
16451;BME280;12243;42.708;23.310;2023-05-09T11:22:28;95327.16;;;17.92;70.21
16451;BME280;12243;42.708;23.310;2023-05-09T11:25:03;95343.91;;;18.16;68.53
16451;BME280;12243;42.708;23.310;2023-05-09T11:27:37;95346.38;;;18.25;67.63
16451;BME280;12243;42.708;23.310;2023-05-09T11:30:06;95343.44;;;18.20;68.04
16451;BME280;12243;42.708;23.310;2023-05-09T11:32:40;95325.16;;;18.11;66.85
16451;BME280;12243;42.708;23.310;2023-05-09T11:35:08;95342.94;;;18.00;68.73
16451;BME280;12243;42.708;23.310;2023-05-09T11:37:44;95338.97;;;18.13;67.82
16451;BME280;12243;42.708;23.310;2023-05-09T11:40:15;95340.81;;;17.96;68.41
16451;BME280;12243;42.708;23.310;2023-05-09T11:42:43;95328.41;;;18.13;67.95
16451;BME280;12243;42.708;23.310;2023-05-09T11:45:11;95325.91;;;18.36;67.33
16451;BME280;12243;42.708;23.310;2023-05-09T11:47:38;95329.06;;;18.23;66.58
16451;BME280;12243;42.708;23.310;2023-05-09T11:50:07;95326.47;;;17.98;67.81
16451;BME280;12243;42.708;23.310;2023-05-09T11:52:36;95338.16;;;17.88;68.81
16451;BME280;12243;42.708;23.310;2023-05-09T11:55:05;95323.50;;;17.69;69.18
16451;BME280;12243;42.708;23.310;2023-05-09T11:57:34;95333.84;;;17.62;69.09
16451;BME280;12243;42.708;23.310;2023-05-09T12:00:02;95326.63;;;17.97;68.51
16451;BME280;12243;42.708;23.310;2023-05-09T12:02:30;95333.53;;;18.30;66.96
16451;BME280;12243;42.708;23.310;2023-05-09T12:05:05;95326.47;;;18.06;67.48
16451;BME280;12243;42.708;23.310;2023-05-09T12:07:34;95339.47;;;17.75;68.75
16451;BME280;12243;42.708;23.310;2023-05-09T12:10:04;95329.69;;;17.43;69.43
16451;BME280;12243;42.708;23.310;2023-05-09T12:12:34;95333.97;;;17.28;69.99
16451;BME280;12243;42.708;23.310;2023-05-09T12:15:02;95340.91;;;17.37;69.84
16451;BME280;12243;42.708;23.310;2023-05-09T12:17:30;95331.84;;;17.39;70.46
16451;BME280;12243;42.708;23.310;2023-05-09T12:19:57;95345.16;;;17.30;71.09
16451;BME280;12243;42.708;23.310;2023-05-09T12:22:25;95330.50;;;17.27;71.03
16451;BME280;12243;42.708;23.310;2023-05-09T12:25:03;95343.16;;;17.16;71.18
16451;BME280;12243;42.708;23.310;2023-05-09T12:27:33;95329.78;;;17.01;71.99
16451;BME280;12243;42.708;23.310;2023-05-09T12:30:01;95329.22;;;16.81;73.02
16451;BME280;12243;42.708;23.310;2023-05-09T12:32:28;95332.34;;;16.50;73.78
16451;BME280;12243;42.708;23.310;2023-05-09T12:34:57;95325.91;;;16.44;74.01
16451;BME280;12243;42.708;23.310;2023-05-09T12:37:24;95325.69;;;16.72;73.67
16451;BME280;12243;42.708;23.310;2023-05-09T12:40:09;95325.47;;;16.57;73.94
16451;BME280;12243;42.708;23.310;2023-05-09T12:42:41;95332.84;;;16.54;74.45
16451;BME280;12243;42.708;23.310;2023-05-09T12:45:09;95326.06;;;16.43;74.78
16451;BME280;12243;42.708;23.310;2023-05-09T12:47:36;95324.53;;;16.32;75.27
16451;BME280;12243;42.708;23.310;2023-05-09T12:50:09;95327.31;;;16.31;75.72
16451;BME280;12243;42.708;23.310;2023-05-09T12:52:38;95326.88;;;16.17;76.07
16451;BME280;12243;42.708;23.310;2023-05-09T12:55:05;95324.94;;;16.19;76.04
16451;BME280;12243;42.708;23.310;2023-05-09T12:57:33;95310.59;;;16.40;75.53